<?xml version='1.0' encoding='UTF-8'?><gpx version="1.1" creator="JPX - https://github.com/jenetics/jpx" xmlns="http://www.topografix.com/GPX/1/1"><trk><trkseg><trkpt lat="50.703750202152186" lon="1.5668099536059874"><ele>18.0</ele><time>2026-04-13T17:30:52.175Z</time></trkpt><trkpt lat="50.70370973108273" lon="1.5666827412942022"><ele>18.0</ele><time>2026-04-13T17:30:55.175Z</time></trkpt><trkpt lat="50.703654266072355" lon="1.5666073102342426"><ele>18.0</ele><time>2026-04-13T17:30:57.999Z</time></trkpt><trkpt lat="50.70358286606171" lon="1.5665992449079296"><ele>18.0</ele><time>2026-04-13T17:31:00.999Z</time></trkpt><trkpt lat="50.70351225314716" lon="1.5665287758978765"><ele>18.0</ele><time>2026-04-13T17:31:04.999Z</time></trkpt><trkpt lat="50.703499091034566" lon="1.566411835287502"><ele>18.0</ele><time>2026-04-13T17:31:07.999Z</time></trkpt><trkpt lat="50.70351999211961" lon="1.5663060459490759"><ele>18.333333333333332</ele><time>2026-04-13T17:31:09.999Z</time></trkpt><trkpt lat="50.70353042724055" lon="1.5661975769061918"><ele>18.666666666666668</ele><time>2026-04-13T17:31:11.999Z</time></trkpt><trkpt lat="50.70354597588744" lon="1.5660594409685948"><ele>19.0</ele><time>2026-04-13T17:31:14.999Z</time></trkpt><trkpt lat="50.70363308356607" lon="1.5659827977941938"><ele>19.333333333333336</ele><time>2026-04-13T17:31:17.999Z</time></trkpt><trkpt lat="50.70370294032075" lon="1.5660254876967146"><ele>19.666666666666668</ele><time>2026-04-13T17:31:19.999Z</time></trkpt><trkpt lat="50.70376045553656" lon="1.5660690766184981"><ele>20.0</ele><time>2026-04-13T17:31:21.999Z</time></trkpt><trkpt lat="50.703823882370905" lon="1.5661366193728758"><ele>19.714285714285715</ele><time>2026-04-13T17:31:24.999Z</time></trkpt><trkpt lat="50.70389693294338" lon="1.5661713061960947"><ele>19.42857142857143</ele><time>2026-04-13T17:31:28.999Z</time></trkpt><trkpt lat="50.70396835401028" lon="1.5662174259877246"><ele>19.142857142857146</ele><time>2026-04-13T17:31:32.999Z</time></trkpt><trkpt lat="50.704016756101865" lon="1.5662819980052431"><ele>18.857142857142858</ele><time>2026-04-13T17:31:36.999Z</time></trkpt><trkpt lat="50.70408165833047" lon="1.566274956403803"><ele>18.571428571428573</ele><time>2026-04-13T17:31:40.999Z</time></trkpt><trkpt lat="50.70414813504452" lon="1.566265702222035"><ele>18.28571428571429</ele><time>2026-04-13T17:31:47.998Z</time></trkpt><trkpt lat="50.70420613563998" lon="1.5661954647860845"><ele>18.0</ele><time>2026-04-13T17:31:52.998Z</time></trkpt><trkpt lat="50.704265905994816" lon="1.5662288369609951"><ele>18.000000000000004</ele><time>2026-04-13T17:31:57.998Z</time></trkpt><trkpt lat="50.704317936348204" lon="1.566304819509401"><ele>18.0</ele><time>2026-04-13T17:32:02.998Z</time></trkpt><trkpt lat="50.704371959793995" lon="1.5663734135568352"><ele>18.0</ele><time>2026-04-13T17:32:07.998Z</time></trkpt><trkpt lat="50.70440868207205" lon="1.5664673548189398"><ele>18.0</ele><time>2026-04-13T17:32:12.998Z</time></trkpt><trkpt lat="50.70445312365645" lon="1.566545232780605"><ele>18.0</ele><time>2026-04-13T17:32:16.998Z</time></trkpt><trkpt lat="50.70451046347386" lon="1.5666253931501872"><ele>18.000000000000004</ele><time>2026-04-13T17:32:20.997Z</time></trkpt><trkpt lat="50.70455524415179" lon="1.5667086381753998"><ele>18.0</ele><time>2026-04-13T17:32:24.997Z</time></trkpt><trkpt lat="50.704599499243905" lon="1.566786332829561"><ele>18.142857142857146</ele><time>2026-04-13T17:32:28.997Z</time></trkpt><trkpt lat="50.70464087389618" lon="1.5668700126102721"><ele>18.285714285714285</ele><time>2026-04-13T17:32:32.997Z</time></trkpt><trkpt lat="50.704686120746544" lon="1.5669665991083706"><ele>18.42857142857143</ele><time>2026-04-13T17:32:37.997Z</time></trkpt><trkpt lat="50.70474296482877" lon="1.5670408975337395"><ele>18.571428571428573</ele><time>2026-04-13T17:32:42.997Z</time></trkpt><trkpt lat="50.704790799437816" lon="1.567137255271315"><ele>18.714285714285715</ele><time>2026-04-13T17:32:47.997Z</time></trkpt><trkpt lat="50.70485458599306" lon="1.5672093809176977"><ele>18.857142857142858</ele><time>2026-04-13T17:32:52.996Z</time></trkpt><trkpt lat="50.70491792183253" lon="1.5672593747470889"><ele>19.0</ele><time>2026-04-13T17:32:56.996Z</time></trkpt><trkpt lat="50.70498130596686" lon="1.5672950413535809"><ele>19.0</ele><time>2026-04-13T17:33:00.996Z</time></trkpt><trkpt lat="50.70505423470479" lon="1.5673507175027848"><ele>19.0</ele><time>2026-04-13T17:33:04.999Z</time></trkpt><trkpt lat="50.70511469283496" lon="1.56738649448645"><ele>19.0</ele><time>2026-04-13T17:33:07.999Z</time></trkpt><trkpt lat="50.705176256519096" lon="1.5674299992141714"><ele>19.0</ele><time>2026-04-13T17:33:11Z</time></trkpt><trkpt lat="50.705240943960526" lon="1.56746226830475"><ele>19.0</ele><time>2026-04-13T17:33:14Z</time></trkpt><trkpt lat="50.70530244210751" lon="1.5674850155135869"><ele>19.0</ele><time>2026-04-13T17:33:16.999Z</time></trkpt><trkpt lat="50.705366446808966" lon="1.5675395637439589"><ele>19.0</ele><time>2026-04-13T17:33:19.999Z</time></trkpt><trkpt lat="50.705434146295474" lon="1.5675847830454928"><ele>19.0</ele><time>2026-04-13T17:33:22.999Z</time></trkpt><trkpt lat="50.70550091926707" lon="1.5676086118563959"><ele>19.0</ele><time>2026-04-13T17:33:25.999Z</time></trkpt><trkpt lat="50.705553487450175" lon="1.5676858213597176"><ele>19.0</ele><time>2026-04-13T17:33:28.999Z</time></trkpt><trkpt lat="50.705614915164645" lon="1.5677635192155264"><ele>19.0</ele><time>2026-04-13T17:33:32.999Z</time></trkpt><trkpt lat="50.705662511533504" lon="1.56785238181564"><ele>19.0</ele><time>2026-04-13T17:33:36.999Z</time></trkpt><trkpt lat="50.70569944982881" lon="1.567939004982414"><ele>19.0</ele><time>2026-04-13T17:33:40.999Z</time></trkpt><trkpt lat="50.705758012289714" lon="1.5680103851089031"><ele>19.0</ele><time>2026-04-13T17:33:45.999Z</time></trkpt><trkpt lat="50.705804583051744" lon="1.5680918483004607"><ele>19.0</ele><time>2026-04-13T17:33:49.999Z</time></trkpt><trkpt lat="50.70585164323611" lon="1.5681855851946254"><ele>19.0</ele><time>2026-04-13T17:33:54.998Z</time></trkpt><trkpt lat="50.70591019826416" lon="1.568257492635233"><ele>19.0</ele><time>2026-04-13T17:33:59.998Z</time></trkpt><trkpt lat="50.70594441015027" lon="1.5683523075423405"><ele>19.0</ele><time>2026-04-13T17:34:04.998Z</time></trkpt><trkpt lat="50.70599705761895" lon="1.5684265623381217"><ele>19.0</ele><time>2026-04-13T17:34:10.998Z</time></trkpt><trkpt lat="50.70604716036135" lon="1.568498354806744"><ele>19.0</ele><time>2026-04-13T17:34:15.998Z</time></trkpt><trkpt lat="50.706098444772394" lon="1.5685811383031256"><ele>19.0</ele><time>2026-04-13T17:34:20.998Z</time></trkpt><trkpt lat="50.70614303994097" lon="1.5686600916558742"><ele>18.166666666666664</ele><time>2026-04-13T17:34:23.998Z</time></trkpt><trkpt lat="50.70619563890473" lon="1.5687354921547416"><ele>17.333333333333332</ele><time>2026-04-13T17:34:26.997Z</time></trkpt><trkpt lat="50.70624424822855" lon="1.568819272666551"><ele>16.5</ele><time>2026-04-13T17:34:29.997Z</time></trkpt><trkpt lat="50.706311708203934" lon="1.5689216338506051"><ele>15.666666666666668</ele><time>2026-04-13T17:34:33.997Z</time></trkpt><trkpt lat="50.70636677431221" lon="1.5690020577726485"><ele>14.833333333333334</ele><time>2026-04-13T17:34:36.997Z</time></trkpt><trkpt lat="50.70643317255967" lon="1.5690844009488423"><ele>14.0</ele><time>2026-04-13T17:34:39.997Z</time></trkpt><trkpt lat="50.706491333943546" lon="1.5691707006467877"><ele>14.0</ele><time>2026-04-13T17:34:43.997Z</time></trkpt><trkpt lat="50.70654667261242" lon="1.569239375642501"><ele>14.0</ele><time>2026-04-13T17:34:48.997Z</time></trkpt><trkpt lat="50.70660951354357" lon="1.569307102879515"><ele>14.0</ele><time>2026-04-13T17:34:53.997Z</time></trkpt><trkpt lat="50.706656672792235" lon="1.5693761201788508"><ele>14.0</ele><time>2026-04-13T17:34:58.996Z</time></trkpt><trkpt lat="50.70671330599161" lon="1.5694403253371016"><ele>14.0</ele><time>2026-04-13T17:35:04.996Z</time></trkpt><trkpt lat="50.706770616033175" lon="1.5695164666919186"><ele>14.0</ele><time>2026-04-13T17:35:08Z</time></trkpt><trkpt lat="50.70683414362735" lon="1.5695835579662711"><ele>14.0</ele><time>2026-04-13T17:35:10Z</time></trkpt><trkpt lat="50.70688307809505" lon="1.569656466958117"><ele>14.142857142857142</ele><time>2026-04-13T17:35:12Z</time></trkpt><trkpt lat="50.706898434815876" lon="1.5697764994984416"><ele>14.285714285714285</ele><time>2026-04-13T17:35:14Z</time></trkpt><trkpt lat="50.70692165558541" lon="1.5699049475709617"><ele>14.428571428571429</ele><time>2026-04-13T17:35:18Z</time></trkpt><trkpt lat="50.70696344329156" lon="1.5699897131451337"><ele>14.571428571428571</ele><time>2026-04-13T17:35:21Z</time></trkpt><trkpt lat="50.70701642650937" lon="1.5700452839631407"><ele>14.714285714285714</ele><time>2026-04-13T17:35:24.999Z</time></trkpt><trkpt lat="50.70705627486853" lon="1.570127018489422"><ele>14.857142857142858</ele><time>2026-04-13T17:35:28.999Z</time></trkpt><trkpt lat="50.70710419138332" lon="1.570195960403719"><ele>15.0</ele><time>2026-04-13T17:35:32.999Z</time></trkpt><trkpt lat="50.70715143378944" lon="1.5702703941254939"><ele>15.0</ele><time>2026-04-13T17:35:36.999Z</time></trkpt><trkpt lat="50.707220786122576" lon="1.5703259995820724"><ele>15.0</ele><time>2026-04-13T17:35:39.999Z</time></trkpt><trkpt lat="50.70727977269649" lon="1.5702320234316842"><ele>15.0</ele><time>2026-04-13T17:35:41.999Z</time></trkpt><trkpt lat="50.70734034621523" lon="1.570172861509616"><ele>15.0</ele><time>2026-04-13T17:35:43.999Z</time></trkpt><trkpt lat="50.70740575121305" lon="1.570122711331791"><ele>15.0</ele><time>2026-04-13T17:35:45.999Z</time></trkpt><trkpt lat="50.707468824251244" lon="1.570065299085737"><ele>15.0</ele><time>2026-04-13T17:35:47.999Z</time></trkpt><trkpt lat="50.70753291976779" lon="1.5700350370779945"><ele>15.0</ele><time>2026-04-13T17:35:49.999Z</time></trkpt><trkpt lat="50.70762455706571" lon="1.5700109104224504"><ele>15.0</ele><time>2026-04-13T17:35:52.999Z</time></trkpt><trkpt lat="50.70770994285819" lon="1.5700218277375042"><ele>15.0</ele><time>2026-04-13T17:35:55.999Z</time></trkpt><trkpt lat="50.70777307345597" lon="1.570043467535977"><ele>15.0</ele><time>2026-04-13T17:35:57.998Z</time></trkpt><trkpt lat="50.707857340058226" lon="1.5700745561850686"><ele>15.0</ele><time>2026-04-13T17:36:00.998Z</time></trkpt><trkpt lat="50.70793227688024" lon="1.5701091669744462"><ele>15.0</ele><time>2026-04-13T17:36:03.998Z</time></trkpt><trkpt lat="50.70800431593014" lon="1.5701445963343146"><ele>15.0</ele><time>2026-04-13T17:36:06.998Z</time></trkpt><trkpt lat="50.708080459695026" lon="1.5701721362687862"><ele>15.0</ele><time>2026-04-13T17:36:09.998Z</time></trkpt><trkpt lat="50.70814918474762" lon="1.5701708674661756"><ele>15.0</ele><time>2026-04-13T17:36:12.998Z</time></trkpt><trkpt lat="50.708218362253106" lon="1.5701739342192436"><ele>15.0</ele><time>2026-04-13T17:36:16.998Z</time></trkpt><trkpt lat="50.70827806268302" lon="1.5702133220988554"><ele>15.0</ele><time>2026-04-13T17:36:49.997Z</time></trkpt><trkpt lat="50.7083256411208" lon="1.5702895864128092"><ele>15.0</ele><time>2026-04-13T17:36:53.997Z</time></trkpt><trkpt lat="50.70840568250363" lon="1.570287219098411"><ele>15.0</ele><time>2026-04-13T17:36:57.997Z</time></trkpt><trkpt lat="50.70848343327806" lon="1.570336424550083"><ele>15.0</ele><time>2026-04-13T17:37:01.996Z</time></trkpt><trkpt lat="50.70855150545433" lon="1.5703702679660865"><ele>15.571428571428573</ele><time>2026-04-13T17:37:05.996Z</time></trkpt><trkpt lat="50.708625817348135" lon="1.5704120922415625"><ele>16.142857142857142</ele><time>2026-04-13T17:37:09.996Z</time></trkpt><trkpt lat="50.70869598962488" lon="1.570443850862384"><ele>16.714285714285715</ele><time>2026-04-13T17:37:14Z</time></trkpt><trkpt lat="50.70877334206572" lon="1.5704720926207403"><ele>17.285714285714285</ele><time>2026-04-13T17:37:18Z</time></trkpt><trkpt lat="50.70882701278996" lon="1.5705276056359232"><ele>17.857142857142858</ele><time>2026-04-13T17:37:22Z</time></trkpt><trkpt lat="50.70888829637981" lon="1.5705527371872845"><ele>18.428571428571427</ele><time>2026-04-13T17:37:26Z</time></trkpt><trkpt lat="50.70893382380725" lon="1.5706216799929116"><ele>19.0</ele><time>2026-04-13T17:37:29Z</time></trkpt><trkpt lat="50.7089722181899" lon="1.5707191393155144"><ele>19.0</ele><time>2026-04-13T17:37:31.999Z</time></trkpt><trkpt lat="50.70903548250257" lon="1.5707371994774708"><ele>19.0</ele><time>2026-04-13T17:37:34.999Z</time></trkpt><trkpt lat="50.709100518927144" lon="1.570791931815653"><ele>19.0</ele><time>2026-04-13T17:37:38.999Z</time></trkpt><trkpt lat="50.70916360984757" lon="1.570813877911961"><ele>19.0</ele><time>2026-04-13T17:37:42.999Z</time></trkpt><trkpt lat="50.70923031245012" lon="1.5708716659720454"><ele>19.0</ele><time>2026-04-13T17:37:46.999Z</time></trkpt><trkpt lat="50.709301363999046" lon="1.5709086249070765"><ele>19.0</ele><time>2026-04-13T17:37:51.999Z</time></trkpt><trkpt lat="50.70936771995134" lon="1.570955412792404"><ele>19.0</ele><time>2026-04-13T17:37:55.999Z</time></trkpt><trkpt lat="50.709430739024164" lon="1.5709921402462015"><ele>18.57142857142857</ele><time>2026-04-13T17:37:59.999Z</time></trkpt><trkpt lat="50.70950098126441" lon="1.5710176643784206"><ele>18.142857142857146</ele><time>2026-04-13T17:38:03.998Z</time></trkpt><trkpt lat="50.70956901739527" lon="1.5710506717406572"><ele>17.714285714285715</ele><time>2026-04-13T17:38:07.998Z</time></trkpt><trkpt lat="50.70961962944133" lon="1.5711303038872277"><ele>17.285714285714285</ele><time>2026-04-13T17:38:13.998Z</time></trkpt><trkpt lat="50.7096247843389" lon="1.571249693707113"><ele>16.857142857142854</ele><time>2026-04-13T17:38:34.998Z</time></trkpt><trkpt lat="50.70962084619805" lon="1.5713506025793746"><ele>16.428571428571427</ele><time>2026-04-13T17:38:37.997Z</time></trkpt><trkpt lat="50.709617746529744" lon="1.5714598056805829"><ele>16.0</ele><time>2026-04-13T17:38:40.997Z</time></trkpt><trkpt lat="50.709626287288856" lon="1.5715722293089178"><ele>17.857142857142858</ele><time>2026-04-13T17:38:44.997Z</time></trkpt><trkpt lat="50.70968649744794" lon="1.571497163697658"><ele>19.714285714285715</ele><time>2026-04-13T17:38:48.997Z</time></trkpt><trkpt lat="50.70972455756937" lon="1.571417235156675"><ele>21.571428571428573</ele><time>2026-04-13T17:38:52.997Z</time></trkpt><trkpt lat="50.70975061212415" lon="1.5715100132446298"><ele>23.42857142857143</ele><time>2026-04-13T17:38:58.997Z</time></trkpt><trkpt lat="50.70972296849743" lon="1.5716287132616251"><ele>25.285714285714285</ele><time>2026-04-13T17:39:03.997Z</time></trkpt><trkpt lat="50.70969286438315" lon="1.571738386787272"><ele>27.142857142857146</ele><time>2026-04-13T17:39:06.997Z</time></trkpt><trkpt lat="50.709733112665454" lon="1.5718299994762444"><ele>29.000000000000004</ele><time>2026-04-13T17:39:10.996Z</time></trkpt><trkpt lat="50.70979115146346" lon="1.5719205314068834"><ele>29.000000000000004</ele><time>2026-04-13T17:39:14.996Z</time></trkpt><trkpt lat="50.7098302755801" lon="1.5720159103477498"><ele>29.0</ele><time>2026-04-13T17:39:20Z</time></trkpt><trkpt lat="50.709842552642066" lon="1.5721416121033598"><ele>29.000000000000004</ele><time>2026-04-13T17:39:25Z</time></trkpt><trkpt lat="50.709848273008795" lon="1.5722471811580212"><ele>29.000000000000004</ele><time>2026-04-13T17:39:29Z</time></trkpt><trkpt lat="50.70984910041648" lon="1.5723480215742742"><ele>29.0</ele><time>2026-04-13T17:39:33Z</time></trkpt><trkpt lat="50.709852291171515" lon="1.5724485853346806"><ele>29.000000000000004</ele><time>2026-04-13T17:39:36.999Z</time></trkpt><trkpt lat="50.7098670736848" lon="1.5725528746230277"><ele>29.000000000000004</ele><time>2026-04-13T17:39:40.999Z</time></trkpt><trkpt lat="50.70987257211373" lon="1.572653405139329"><ele>30.000000000000004</ele><time>2026-04-13T17:39:44.999Z</time></trkpt><trkpt lat="50.709912506111934" lon="1.5727335879720874"><ele>31.0</ele><time>2026-04-13T17:39:48.999Z</time></trkpt><trkpt lat="50.709959958543784" lon="1.5728038109810476"><ele>32.0</ele><time>2026-04-13T17:39:52.999Z</time></trkpt><trkpt lat="50.70996954946295" lon="1.5726843068276801"><ele>33.0</ele><time>2026-04-13T17:40:01.999Z</time></trkpt><trkpt lat="50.7099604529914" lon="1.572557044916423"><ele>34.0</ele><time>2026-04-13T17:40:05.999Z</time></trkpt><trkpt lat="50.710031527131214" lon="1.5725134686749245"><ele>35.00000000000001</ele><time>2026-04-13T17:40:09.998Z</time></trkpt><trkpt lat="50.710047963994526" lon="1.5723972386931822"><ele>36.0</ele><time>2026-04-13T17:40:14.998Z</time></trkpt><trkpt lat="50.70999526212227" lon="1.5723021619840973"><ele>36.00000000000001</ele><time>2026-04-13T17:40:18.998Z</time></trkpt><trkpt lat="50.710001017038984" lon="1.5721857540652076"><ele>36.0</ele><time>2026-04-13T17:40:22.998Z</time></trkpt><trkpt lat="50.710021446143905" lon="1.5720750906212688"><ele>36.0</ele><time>2026-04-13T17:40:27.998Z</time></trkpt><trkpt lat="50.710081178792386" lon="1.571994867268053"><ele>36.0</ele><time>2026-04-13T17:40:32.998Z</time></trkpt><trkpt lat="50.71011618959391" lon="1.5720907235077957"><ele>36.0</ele><time>2026-04-13T17:40:35.998Z</time></trkpt><trkpt lat="50.71016451727022" lon="1.5721581394290074"><ele>36.00000000000001</ele><time>2026-04-13T17:40:39.997Z</time></trkpt><trkpt lat="50.71022727983217" lon="1.5722156481773706"><ele>36.0</ele><time>2026-04-13T17:40:44.997Z</time></trkpt><trkpt lat="50.71029122440097" lon="1.5722622948975562"><ele>36.00000000000001</ele><time>2026-04-13T17:40:49.997Z</time></trkpt><trkpt lat="50.71035687020376" lon="1.572306560123887"><ele>36.0</ele><time>2026-04-13T17:40:55.997Z</time></trkpt><trkpt lat="50.71042654660039" lon="1.5722992204574044"><ele>36.0</ele><time>2026-04-13T17:41:01.997Z</time></trkpt><trkpt lat="50.710401407870094" lon="1.5722079524895782"><ele>36.0</ele><time>2026-04-13T17:41:42.999Z</time></trkpt><trkpt lat="50.71039837578711" lon="1.5723100942889705"><ele>36.0</ele><time>2026-04-13T17:41:45.999Z</time></trkpt><trkpt lat="50.710422224703215" lon="1.5724081215025567"><ele>36.00000000000001</ele><time>2026-04-13T17:41:48.999Z</time></trkpt><trkpt lat="50.710476550379184" lon="1.5724616030399334"><ele>36.0</ele><time>2026-04-13T17:41:51.999Z</time></trkpt><trkpt lat="50.71053435432577" lon="1.5725231446141945"><ele>36.0</ele><time>2026-04-13T17:41:54.999Z</time></trkpt><trkpt lat="50.71061735470104" lon="1.5725185341679697"><ele>36.0</ele><time>2026-04-13T17:41:58.999Z</time></trkpt><trkpt lat="50.71069688205203" lon="1.5725138857937833"><ele>36.0</ele><time>2026-04-13T17:42:02.999Z</time></trkpt><trkpt lat="50.71076197580689" lon="1.5725307309986347"><ele>36.0</ele><time>2026-04-13T17:42:05.999Z</time></trkpt><trkpt lat="50.71084658888079" lon="1.5725470666916381"><ele>36.0</ele><time>2026-04-13T17:42:08.999Z</time></trkpt><trkpt lat="50.71092954472131" lon="1.5725565550349712"><ele>36.0</ele><time>2026-04-13T17:42:11.998Z</time></trkpt><trkpt lat="50.710997666441344" lon="1.572547632718923"><ele>36.0</ele><time>2026-04-13T17:42:14.998Z</time></trkpt><trkpt lat="50.7110613145539" lon="1.5725635537465057"><ele>36.0</ele><time>2026-04-13T17:42:17.998Z</time></trkpt><trkpt lat="50.71113113922127" lon="1.5725797184890642"><ele>36.0</ele><time>2026-04-13T17:42:20.998Z</time></trkpt><trkpt lat="50.711215087176086" lon="1.5726138147872222"><ele>36.0</ele><time>2026-04-13T17:42:23.998Z</time></trkpt><trkpt lat="50.71129580534219" lon="1.5726265354574687"><ele>36.0</ele><time>2026-04-13T17:42:26.998Z</time></trkpt><trkpt lat="50.711385698522115" lon="1.5726362676681993"><ele>36.0</ele><time>2026-04-13T17:42:29.998Z</time></trkpt><trkpt lat="50.711470121400424" lon="1.5726703092232504"><ele>35.333333333333336</ele><time>2026-04-13T17:42:32.998Z</time></trkpt><trkpt lat="50.71155152408984" lon="1.5727279512937165"><ele>34.666666666666664</ele><time>2026-04-13T17:42:35.998Z</time></trkpt><trkpt lat="50.71161235484035" lon="1.5727636600301604"><ele>34.0</ele><time>2026-04-13T17:42:37.998Z</time></trkpt><trkpt lat="50.71167449253139" lon="1.5727826420178976"><ele>33.33333333333333</ele><time>2026-04-13T17:42:39.998Z</time></trkpt><trkpt lat="50.71176220713901" lon="1.572805647627835"><ele>32.666666666666664</ele><time>2026-04-13T17:42:42.998Z</time></trkpt><trkpt lat="50.71182777026619" lon="1.572877552130823"><ele>32.0</ele><time>2026-04-13T17:42:45.997Z</time></trkpt><trkpt lat="50.711834797320535" lon="1.572990415167358"><ele>31.999999999999996</ele><time>2026-04-13T17:42:49.997Z</time></trkpt><trkpt lat="50.71180868066605" lon="1.5731084959385262"><ele>32.0</ele><time>2026-04-13T17:42:54.997Z</time></trkpt><trkpt lat="50.71179513045152" lon="1.5732488519018395"><ele>32.0</ele><time>2026-04-13T17:42:57.997Z</time></trkpt><trkpt lat="50.71179832959107" lon="1.5733676232933609"><ele>32.0</ele><time>2026-04-13T17:43:00.997Z</time></trkpt><trkpt lat="50.71184829213195" lon="1.5734689842206322"><ele>31.999999999999996</ele><time>2026-04-13T17:43:04.997Z</time></trkpt><trkpt lat="50.71184021752845" lon="1.5735849915495403"><ele>32.0</ele><time>2026-04-13T17:43:06.997Z</time></trkpt><trkpt lat="50.71181380246301" lon="1.573685620246766"><ele>32.0</ele><time>2026-04-13T17:43:11.997Z</time></trkpt><trkpt lat="50.71187644401808" lon="1.5737549377419626"><ele>31.999999999999996</ele><time>2026-04-13T17:43:18.996Z</time></trkpt><trkpt lat="50.711945423699305" lon="1.5737804635060462"><ele>32.0</ele><time>2026-04-13T17:43:22.996Z</time></trkpt><trkpt lat="50.712020627616184" lon="1.5738202354759858"><ele>32.0</ele><time>2026-04-13T17:43:26.996Z</time></trkpt><trkpt lat="50.71208381106763" lon="1.5738422435881838"><ele>31.999999999999996</ele><time>2026-04-13T17:43:30Z</time></trkpt><trkpt lat="50.71215466215465" lon="1.5738774471805559"><ele>32.0</ele><time>2026-04-13T17:43:33Z</time></trkpt><trkpt lat="50.71222094405751" lon="1.5739287776193605"><ele>32.0</ele><time>2026-04-13T17:43:36Z</time></trkpt><trkpt lat="50.71228334657023" lon="1.5739906477854648"><ele>31.142857142857142</ele><time>2026-04-13T17:43:39Z</time></trkpt><trkpt lat="50.71231905987588" lon="1.5740809272129015"><ele>30.285714285714285</ele><time>2026-04-13T17:43:42Z</time></trkpt><trkpt lat="50.71232976391067" lon="1.574189661481336"><ele>29.428571428571427</ele><time>2026-04-13T17:43:44.999Z</time></trkpt><trkpt lat="50.712393665555695" lon="1.5742265098561148"><ele>28.57142857142857</ele><time>2026-04-13T17:43:48.999Z</time></trkpt><trkpt lat="50.71245622365405" lon="1.5742602169655455"><ele>27.714285714285715</ele><time>2026-04-13T17:44:12.999Z</time></trkpt><trkpt lat="50.712522031244184" lon="1.5743312047005853"><ele>26.857142857142854</ele><time>2026-04-13T17:44:16.998Z</time></trkpt><trkpt lat="50.712591242269816" lon="1.574369755908626"><ele>26.0</ele><time>2026-04-13T17:44:20.998Z</time></trkpt><trkpt lat="50.71252789109782" lon="1.574337304974441"><ele>25.999999999999996</ele><time>2026-04-13T17:45:26.996Z</time></trkpt><trkpt lat="50.71246746882792" lon="1.5742796872246876"><ele>26.0</ele><time>2026-04-13T17:45:34.996Z</time></trkpt><trkpt lat="50.71241259361766" lon="1.5742234152377574"><ele>26.0</ele><time>2026-04-13T17:45:43Z</time></trkpt><trkpt lat="50.712336499966405" lon="1.5742067562786122"><ele>26.0</ele><time>2026-04-13T17:45:49Z</time></trkpt><trkpt lat="50.71231132641658" lon="1.574089581722592"><ele>25.999999999999996</ele><time>2026-04-13T17:45:52.999Z</time></trkpt><trkpt lat="50.71227520524426" lon="1.5739788813374502"><ele>26.0</ele><time>2026-04-13T17:45:55.999Z</time></trkpt><trkpt lat="50.712205056516844" lon="1.5739146863036193"><ele>26.0</ele><time>2026-04-13T17:45:58.999Z</time></trkpt><trkpt lat="50.71213712155691" lon="1.5738688762364192"><ele>26.0</ele><time>2026-04-13T17:46:01.999Z</time></trkpt><trkpt lat="50.71206653521952" lon="1.5738302343176427"><ele>26.0</ele><time>2026-04-13T17:46:04.999Z</time></trkpt><trkpt lat="50.71199986922388" lon="1.5738033746120543"><ele>26.0</ele><time>2026-04-13T17:46:07.999Z</time></trkpt><trkpt lat="50.71193720813914" lon="1.5737762732601595"><ele>26.0</ele><time>2026-04-13T17:46:10.999Z</time></trkpt><trkpt lat="50.711875290290166" lon="1.5737551630641036"><ele>26.0</ele><time>2026-04-13T17:46:13.999Z</time></trkpt><trkpt lat="50.711800067211726" lon="1.5737259498676441"><ele>26.0</ele><time>2026-04-13T17:46:17.999Z</time></trkpt><trkpt lat="50.71178151708558" lon="1.5736216203039075"><ele>25.857142857142858</ele><time>2026-04-13T17:46:21.999Z</time></trkpt><trkpt lat="50.71179480804397" lon="1.5735078136384493"><ele>25.714285714285715</ele><time>2026-04-13T17:46:26.998Z</time></trkpt><trkpt lat="50.71179252219271" lon="1.5733878936402428"><ele>25.571428571428573</ele><time>2026-04-13T17:46:37.998Z</time></trkpt><trkpt lat="50.711788735371556" lon="1.573281622410816"><ele>25.42857142857143</ele><time>2026-04-13T17:46:40.998Z</time></trkpt><trkpt lat="50.71180516751339" lon="1.5731649949966788"><ele>25.285714285714285</ele><time>2026-04-13T17:46:44.998Z</time></trkpt><trkpt lat="50.71181331843494" lon="1.5730531645047119"><ele>25.142857142857146</ele><time>2026-04-13T17:46:49.998Z</time></trkpt><trkpt lat="50.71184335060544" lon="1.5729451865956754"><ele>25.0</ele><time>2026-04-13T17:46:55.997Z</time></trkpt><trkpt lat="50.71179890259393" lon="1.5728450540406222"><ele>25.000000000000004</ele><time>2026-04-13T17:46:59.997Z</time></trkpt><trkpt lat="50.71171718513544" lon="1.5727713807202786"><ele>25.0</ele><time>2026-04-13T17:47:02.997Z</time></trkpt><trkpt lat="50.711627798896494" lon="1.5727643511756153"><ele>25.0</ele><time>2026-04-13T17:47:05.997Z</time></trkpt><trkpt lat="50.71155608162338" lon="1.5727351219454382"><ele>25.0</ele><time>2026-04-13T17:47:08.997Z</time></trkpt><trkpt lat="50.711496964492106" lon="1.5726956978362694"><ele>25.000000000000004</ele><time>2026-04-13T17:47:11.997Z</time></trkpt><trkpt lat="50.71143203760816" lon="1.572660885422775"><ele>25.0</ele><time>2026-04-13T17:47:14.997Z</time></trkpt><trkpt lat="50.71135590989455" lon="1.572626864652805"><ele>25.000000000000004</ele><time>2026-04-13T17:47:18.997Z</time></trkpt><trkpt lat="50.71128300849378" lon="1.572627478997405"><ele>25.0</ele><time>2026-04-13T17:47:22.997Z</time></trkpt><trkpt lat="50.71121587932662" lon="1.5726262879341815"><ele>25.0</ele><time>2026-04-13T17:47:26.996Z</time></trkpt><trkpt lat="50.71114615137729" lon="1.5726104988124883"><ele>25.0</ele><time>2026-04-13T17:47:30.996Z</time></trkpt><trkpt lat="50.711083726869106" lon="1.5725864995887313"><ele>25.0</ele><time>2026-04-13T17:47:34.996Z</time></trkpt><trkpt lat="50.711019463450555" lon="1.5725611637869084"><ele>25.000000000000004</ele><time>2026-04-13T17:47:38.996Z</time></trkpt><trkpt lat="50.710954658177215" lon="1.5725568265400907"><ele>25.0</ele><time>2026-04-13T17:47:42.999Z</time></trkpt><trkpt lat="50.71087983177314" lon="1.5725616087357377"><ele>26.571428571428573</ele><time>2026-04-13T17:47:47.999Z</time></trkpt><trkpt lat="50.71080636278059" lon="1.5725504173005413"><ele>28.142857142857146</ele><time>2026-04-13T17:47:52.999Z</time></trkpt><trkpt lat="50.71073898251603" lon="1.5725276058623165"><ele>29.714285714285715</ele><time>2026-04-13T17:47:56.999Z</time></trkpt><trkpt lat="50.71066151787264" lon="1.5725108597589819"><ele>31.28571428571429</ele><time>2026-04-13T17:48:00.999Z</time></trkpt><trkpt lat="50.710595105345114" lon="1.5725170773103687"><ele>32.85714285714286</ele><time>2026-04-13T17:48:04.999Z</time></trkpt><trkpt lat="50.71052052500288" lon="1.5725145881021112"><ele>34.42857142857143</ele><time>2026-04-13T17:48:09.999Z</time></trkpt><trkpt lat="50.710462814400586" lon="1.5724450963631131"><ele>36.0</ele><time>2026-04-13T17:48:15Z</time></trkpt><trkpt lat="50.71042218506272" lon="1.5723547687678068"><ele>36.00000000000001</ele><time>2026-04-13T17:48:19Z</time></trkpt><trkpt lat="50.71042209329444" lon="1.5722489144930152"><ele>36.0</ele><time>2026-04-13T17:48:24Z</time></trkpt><trkpt lat="50.71035956013625" lon="1.5722083128947129"><ele>36.0</ele><time>2026-04-13T17:49:03.998Z</time></trkpt><trkpt lat="50.71027766997333" lon="1.5722294169900872"><ele>36.0</ele><time>2026-04-13T17:49:08.998Z</time></trkpt><trkpt lat="50.710212142819664" lon="1.572202082741266"><ele>36.0</ele><time>2026-04-13T17:49:11.998Z</time></trkpt><trkpt lat="50.71012780920512" lon="1.5722093863839999"><ele>36.00000000000001</ele><time>2026-04-13T17:49:14.998Z</time></trkpt><trkpt lat="50.710067646162045" lon="1.572242112012716"><ele>36.0</ele><time>2026-04-13T17:49:16.998Z</time></trkpt><trkpt lat="50.7100137574088" lon="1.5723064165614165"><ele>36.0</ele><time>2026-04-13T17:49:21.998Z</time></trkpt><trkpt lat="50.710006899717854" lon="1.5724210798738976"><ele>36.0</ele><time>2026-04-13T17:49:26.998Z</time></trkpt><trkpt lat="50.709972202629686" lon="1.5725126256769961"><ele>36.0</ele><time>2026-04-13T17:49:29.998Z</time></trkpt><trkpt lat="50.70995842203031" lon="1.5726311723561799"><ele>36.0</ele><time>2026-04-13T17:49:33.997Z</time></trkpt><trkpt lat="50.70999312465504" lon="1.572749842980869"><ele>36.0</ele><time>2026-04-13T17:49:36.997Z</time></trkpt><trkpt lat="50.70990395805629" lon="1.572730044419728"><ele>36.0</ele><time>2026-04-13T17:49:41.997Z</time></trkpt><trkpt lat="50.70986432403526" lon="1.5725996883253808"><ele>36.00000000000001</ele><time>2026-04-13T17:49:44.997Z</time></trkpt><trkpt lat="50.70986018659609" lon="1.572493917453069"><ele>36.0</ele><time>2026-04-13T17:49:47Z</time></trkpt><trkpt lat="50.709844228741396" lon="1.5723925716826794"><ele>36.0</ele><time>2026-04-13T17:49:49Z</time></trkpt><trkpt lat="50.709845211123046" lon="1.5722926690440655"><ele>36.0</ele><time>2026-04-13T17:49:51.001Z</time></trkpt><trkpt lat="50.70983873318015" lon="1.5721910485288266"><ele>36.0</ele><time>2026-04-13T17:49:54.001Z</time></trkpt><trkpt lat="50.70982926260999" lon="1.572084398310685"><ele>36.00000000000001</ele><time>2026-04-13T17:49:57.001Z</time></trkpt><trkpt lat="50.709823326726294" lon="1.571980141137531"><ele>36.0</ele><time>2026-04-13T17:50:00.001Z</time></trkpt><trkpt lat="50.709773128854145" lon="1.5718992017869966"><ele>34.833333333333336</ele><time>2026-04-13T17:50:03Z</time></trkpt><trkpt lat="50.70971657063345" lon="1.5717698042294659"><ele>33.666666666666664</ele><time>2026-04-13T17:50:06Z</time></trkpt><trkpt lat="50.709707635127586" lon="1.571646843793424"><ele>32.5</ele><time>2026-04-13T17:50:10Z</time></trkpt><trkpt lat="50.70974442303132" lon="1.5715418942559771"><ele>31.333333333333332</ele><time>2026-04-13T17:50:13Z</time></trkpt><trkpt lat="50.709756758912654" lon="1.5714177798104487"><ele>30.166666666666664</ele><time>2026-04-13T17:50:17Z</time></trkpt><trkpt lat="50.70973937698249" lon="1.571314042642166"><ele>29.0</ele><time>2026-04-13T17:50:23Z</time></trkpt><trkpt lat="50.70968946393689" lon="1.5712475508857238"><ele>27.142857142857146</ele><time>2026-04-13T17:50:27Z</time></trkpt><trkpt lat="50.709638656786396" lon="1.5711871129482429"><ele>25.285714285714285</ele><time>2026-04-13T17:50:32Z</time></trkpt><trkpt lat="50.70958804470144" lon="1.5711265191824078"><ele>23.42857142857143</ele><time>2026-04-13T17:50:35.999Z</time></trkpt><trkpt lat="50.70953608284058" lon="1.571037447303594"><ele>21.571428571428573</ele><time>2026-04-13T17:50:39.999Z</time></trkpt><trkpt lat="50.70950210412427" lon="1.5709201271614126"><ele>19.714285714285715</ele><time>2026-04-13T17:50:42.999Z</time></trkpt><trkpt lat="50.70947286756453" lon="1.5708276334621705"><ele>17.857142857142858</ele><time>2026-04-13T17:50:46.999Z</time></trkpt><trkpt lat="50.7094655580718" lon="1.5707269169302294"><ele>16.0</ele><time>2026-04-13T17:50:50.999Z</time></trkpt><trkpt lat="50.70954497626698" lon="1.5707295875125393"><ele>15.999999999999998</ele><time>2026-04-13T17:50:53.999Z</time></trkpt><trkpt lat="50.70946922044327" lon="1.5707242368901202"><ele>16.0</ele><time>2026-04-13T17:51:02.999Z</time></trkpt><trkpt lat="50.709394472525595" lon="1.570689913833672"><ele>16.0</ele><time>2026-04-13T17:51:05.998Z</time></trkpt><trkpt lat="50.7093040068701" lon="1.5706420197842224"><ele>16.0</ele><time>2026-04-13T17:51:07.998Z</time></trkpt><trkpt lat="50.70922427327308" lon="1.5706304968617717"><ele>15.999999999999998</ele><time>2026-04-13T17:51:09.998Z</time></trkpt><trkpt lat="50.70913750960612" lon="1.5706082356273279"><ele>16.0</ele><time>2026-04-13T17:51:11.998Z</time></trkpt><trkpt lat="50.70905822970927" lon="1.5705852365087183"><ele>16.5</ele><time>2026-04-13T17:51:13.998Z</time></trkpt><trkpt lat="50.708979254875686" lon="1.5705975178257745"><ele>17.0</ele><time>2026-04-13T17:51:15.998Z</time></trkpt><trkpt lat="50.70890138030895" lon="1.5705649591500594"><ele>17.5</ele><time>2026-04-13T17:51:18.998Z</time></trkpt><trkpt lat="50.70883542871541" lon="1.5704952965951549"><ele>18.0</ele><time>2026-04-13T17:51:21.998Z</time></trkpt><trkpt lat="50.708777255072164" lon="1.5704487126309392"><ele>18.5</ele><time>2026-04-13T17:51:24.998Z</time></trkpt><trkpt lat="50.70870710335298" lon="1.570422107764904"><ele>19.0</ele><time>2026-04-13T17:51:27.998Z</time></trkpt><trkpt lat="50.708632727815356" lon="1.570398225231678"><ele>19.333333333333332</ele><time>2026-04-13T17:51:30.998Z</time></trkpt><trkpt lat="50.708552243024926" lon="1.570374033206866"><ele>19.666666666666664</ele><time>2026-04-13T17:51:33.998Z</time></trkpt><trkpt lat="50.70846995681194" lon="1.570324084481315"><ele>20.0</ele><time>2026-04-13T17:51:36.998Z</time></trkpt><trkpt lat="50.70840126907503" lon="1.570297369365736"><ele>20.333333333333332</ele><time>2026-04-13T17:51:39.997Z</time></trkpt><trkpt lat="50.70831969679999" lon="1.5702585309295147"><ele>20.666666666666668</ele><time>2026-04-13T17:51:42.997Z</time></trkpt><trkpt lat="50.708256686688976" lon="1.570212699660909"><ele>21.0</ele><time>2026-04-13T17:51:44.997Z</time></trkpt><trkpt lat="50.70817823338292" lon="1.5701757190175787"><ele>20.0</ele><time>2026-04-13T17:51:47.997Z</time></trkpt><trkpt lat="50.708109031028165" lon="1.5701249749"><ele>19.0</ele><time>2026-04-13T17:51:51.997Z</time></trkpt><trkpt lat="50.7080345058163" lon="1.5700977667110836"><ele>18.0</ele><time>2026-04-13T17:51:56.001Z</time></trkpt><trkpt lat="50.707967856393246" lon="1.570067504776866"><ele>17.0</ele><time>2026-04-13T17:51:59.001Z</time></trkpt><trkpt lat="50.70788634077925" lon="1.5700418739863384"><ele>16.0</ele><time>2026-04-13T17:52:02Z</time></trkpt><trkpt lat="50.70781638861239" lon="1.5700133863799242"><ele>15.0</ele><time>2026-04-13T17:52:05Z</time></trkpt><trkpt lat="50.70773543974611" lon="1.5699909551170494"><ele>15.0</ele><time>2026-04-13T17:52:08Z</time></trkpt><trkpt lat="50.70766645307892" lon="1.5699686476108048"><ele>15.0</ele><time>2026-04-13T17:52:11Z</time></trkpt><trkpt lat="50.707602278686124" lon="1.5699288726784388"><ele>15.0</ele><time>2026-04-13T17:52:15Z</time></trkpt><trkpt lat="50.707538723309234" lon="1.5699323524305633"><ele>15.0</ele><time>2026-04-13T17:52:19Z</time></trkpt><trkpt lat="50.707476144206" lon="1.5699653435847034"><ele>15.0</ele><time>2026-04-13T17:52:23Z</time></trkpt><trkpt lat="50.707438584452206" lon="1.5700558631171833"><ele>15.0</ele><time>2026-04-13T17:52:28Z</time></trkpt><trkpt lat="50.707383449244674" lon="1.570108014240425"><ele>15.0</ele><time>2026-04-13T17:52:32Z</time></trkpt><trkpt lat="50.707325828830975" lon="1.5701636236412246"><ele>15.0</ele><time>2026-04-13T17:52:39Z</time></trkpt><trkpt lat="50.707279898124476" lon="1.570256754512561"><ele>15.0</ele><time>2026-04-13T17:52:44.999Z</time></trkpt><trkpt lat="50.70722396166107" lon="1.5703119293404164"><ele>15.0</ele><time>2026-04-13T17:52:49.999Z</time></trkpt><trkpt lat="50.70715197946442" lon="1.5702743620697306"><ele>15.0</ele><time>2026-04-13T17:52:54.999Z</time></trkpt><trkpt lat="50.70710528331893" lon="1.5701902106932946"><ele>15.0</ele><time>2026-04-13T17:52:58.999Z</time></trkpt><trkpt lat="50.707038202948915" lon="1.5701239224209271"><ele>15.0</ele><time>2026-04-13T17:53:03.999Z</time></trkpt><trkpt lat="50.706993750212526" lon="1.5700441488712553"><ele>15.0</ele><time>2026-04-13T17:53:09.999Z</time></trkpt><trkpt lat="50.70694199636259" lon="1.5699585744325546"><ele>15.0</ele><time>2026-04-13T17:53:14.998Z</time></trkpt><trkpt lat="50.70690146062304" lon="1.5698659190003614"><ele>15.0</ele><time>2026-04-13T17:53:18.998Z</time></trkpt><trkpt lat="50.706944325074666" lon="1.5697750053216872"><ele>15.0</ele><time>2026-04-13T17:53:37.998Z</time></trkpt><trkpt lat="50.70689114951387" lon="1.5697130232235763"><ele>15.0</ele><time>2026-04-13T17:55:36.998Z</time></trkpt><trkpt lat="50.70684102215339" lon="1.569628265359928"><ele>15.0</ele><time>2026-04-13T17:55:44.998Z</time></trkpt><trkpt lat="50.70678745123613" lon="1.569565523954896"><ele>15.0</ele><time>2026-04-13T17:55:51.997Z</time></trkpt><trkpt lat="50.70673936484566" lon="1.5695011803180698"><ele>15.0</ele><time>2026-04-13T17:55:57.997Z</time></trkpt><trkpt lat="50.70668606514504" lon="1.569434566614382"><ele>14.857142857142858</ele><time>2026-04-13T17:56:05Z</time></trkpt><trkpt lat="50.706639271407624" lon="1.5693631242269843"><ele>14.714285714285714</ele><time>2026-04-13T17:56:12Z</time></trkpt><trkpt lat="50.70658019512458" lon="1.5692951804755937"><ele>14.571428571428571</ele><time>2026-04-13T17:56:19Z</time></trkpt><trkpt lat="50.70652853590007" lon="1.5692260121455324"><ele>14.428571428571429</ele><time>2026-04-13T17:56:26Z</time></trkpt><trkpt lat="50.70647556483249" lon="1.5691451304368793"><ele>14.285714285714285</ele><time>2026-04-13T17:56:33Z</time></trkpt><trkpt lat="50.7064197726784" lon="1.5690664643059464"><ele>14.142857142857142</ele><time>2026-04-13T17:56:40Z</time></trkpt><trkpt lat="50.706365498259935" lon="1.5690012204835875"><ele>14.0</ele><time>2026-04-13T17:56:46Z</time></trkpt><trkpt lat="50.706320398233096" lon="1.5689256648346415"><ele>14.0</ele><time>2026-04-13T17:56:51.999Z</time></trkpt><trkpt lat="50.7062681775897" lon="1.5688584187331855"><ele>14.0</ele><time>2026-04-13T17:56:57.999Z</time></trkpt><trkpt lat="50.70622002017992" lon="1.5687935531652368"><ele>14.0</ele><time>2026-04-13T17:57:03.999Z</time></trkpt><trkpt lat="50.70617430258045" lon="1.5687082001997468"><ele>14.0</ele><time>2026-04-13T17:57:10.999Z</time></trkpt><trkpt lat="50.706128807266865" lon="1.5686393786190358"><ele>14.0</ele><time>2026-04-13T17:57:16.999Z</time></trkpt><trkpt lat="50.706081038018866" lon="1.5685659760999893"><ele>14.0</ele><time>2026-04-13T17:57:22.998Z</time></trkpt><trkpt lat="50.70602900990656" lon="1.5684829298244276"><ele>14.0</ele><time>2026-04-13T17:57:29.998Z</time></trkpt><trkpt lat="50.70597798256508" lon="1.5684023622740904"><ele>14.714285714285715</ele><time>2026-04-13T17:57:36.998Z</time></trkpt><trkpt lat="50.70592969225749" lon="1.568319027250051"><ele>15.428571428571429</ele><time>2026-04-13T17:57:43.998Z</time></trkpt><trkpt lat="50.70588681437027" lon="1.5682404709444842"><ele>16.142857142857142</ele><time>2026-04-13T17:57:49.998Z</time></trkpt><trkpt lat="50.705838899699074" lon="1.5681575488504125"><ele>16.857142857142858</ele><time>2026-04-13T17:57:57.997Z</time></trkpt><trkpt lat="50.705796814644515" lon="1.5680822867968967"><ele>17.571428571428573</ele><time>2026-04-13T17:58:03.997Z</time></trkpt><trkpt lat="50.7057483221958" lon="1.5680139778477067"><ele>18.285714285714285</ele><time>2026-04-13T17:58:11Z</time></trkpt><trkpt lat="50.705704580746946" lon="1.5679277850841065"><ele>19.0</ele><time>2026-04-13T17:58:17Z</time></trkpt><trkpt lat="50.70566075309955" lon="1.5678480291816341"><ele>17.428571428571427</ele><time>2026-04-13T17:58:23Z</time></trkpt><trkpt lat="50.70561220178023" lon="1.5677667253309504"><ele>15.857142857142858</ele><time>2026-04-13T17:58:29Z</time></trkpt><trkpt lat="50.70556613210953" lon="1.5676918733105516"><ele>14.285714285714286</ele><time>2026-04-13T17:58:35Z</time></trkpt><trkpt lat="50.705511126599454" lon="1.5676205042311677"><ele>12.714285714285714</ele><time>2026-04-13T17:58:41Z</time></trkpt><trkpt lat="50.70544760603837" lon="1.5675620311188678"><ele>11.142857142857142</ele><time>2026-04-13T17:58:47Z</time></trkpt><trkpt lat="50.705380390872584" lon="1.567521442480586"><ele>9.571428571428571</ele><time>2026-04-13T17:58:52.999Z</time></trkpt><trkpt lat="50.70531921782206" lon="1.5674890588960186"><ele>8.0</ele><time>2026-04-13T17:58:58.999Z</time></trkpt><trkpt lat="50.705246717667976" lon="1.5674461992435291"><ele>9.571428571428571</ele><time>2026-04-13T17:59:05.999Z</time></trkpt><trkpt lat="50.70517587885156" lon="1.5674147141639656"><ele>11.142857142857142</ele><time>2026-04-13T17:59:12.999Z</time></trkpt><trkpt lat="50.705111531972754" lon="1.5673896943474472"><ele>12.714285714285714</ele><time>2026-04-13T17:59:19.999Z</time></trkpt><trkpt lat="50.705053187277954" lon="1.56734595782429"><ele>14.285714285714286</ele><time>2026-04-13T17:59:25.998Z</time></trkpt><trkpt lat="50.704989645652496" lon="1.5673031272155453"><ele>15.857142857142858</ele><time>2026-04-13T17:59:32.998Z</time></trkpt><trkpt lat="50.70492939809951" lon="1.5672594600853198"><ele>17.428571428571427</ele><time>2026-04-13T17:59:39.998Z</time></trkpt><trkpt lat="50.70487170881457" lon="1.5672114148604763"><ele>19.0</ele><time>2026-04-13T17:59:47.998Z</time></trkpt><trkpt lat="50.704811561124764" lon="1.5671495524858738"><ele>19.0</ele><time>2026-04-13T17:59:50.998Z</time></trkpt><trkpt lat="50.70473841206089" lon="1.567074901643747"><ele>19.0</ele><time>2026-04-13T17:59:53.998Z</time></trkpt><trkpt lat="50.704679794806005" lon="1.5669781235424942"><ele>19.0</ele><time>2026-04-13T17:59:56.997Z</time></trkpt><trkpt lat="50.70463795459283" lon="1.5669015312651893"><ele>19.0</ele><time>2026-04-13T17:59:58.997Z</time></trkpt><trkpt lat="50.70459680574542" lon="1.5667739868195985"><ele>19.0</ele><time>2026-04-13T18:00:01.997Z</time></trkpt><trkpt lat="50.70454526630263" lon="1.5666593239629176"><ele>19.0</ele><time>2026-04-13T18:00:04.997Z</time></trkpt><trkpt lat="50.70448676971397" lon="1.5665567970216399"><ele>18.833333333333332</ele><time>2026-04-13T18:00:07.997Z</time></trkpt><trkpt lat="50.7044199730785" lon="1.5664803286050801"><ele>18.666666666666664</ele><time>2026-04-13T18:00:10.997Z</time></trkpt><trkpt lat="50.70436162887266" lon="1.5663765236209284"><ele>18.5</ele><time>2026-04-13T18:00:13.997Z</time></trkpt><trkpt lat="50.70430096585785" lon="1.5662784771453835"><ele>18.333333333333332</ele><time>2026-04-13T18:00:17Z</time></trkpt><trkpt lat="50.70422442502828" lon="1.566221739520956"><ele>18.166666666666668</ele><time>2026-04-13T18:00:20Z</time></trkpt><trkpt lat="50.70416502640065" lon="1.5662683921704061"><ele>18.0</ele><time>2026-04-13T18:00:22Z</time></trkpt><trkpt lat="50.70407518791958" lon="1.5663227614181778"><ele>18.0</ele><time>2026-04-13T18:00:25Z</time></trkpt><trkpt lat="50.704002443448275" lon="1.566292575980995"><ele>18.0</ele><time>2026-04-13T18:00:27Z</time></trkpt><trkpt lat="50.70392635125131" lon="1.5662579650210557"><ele>18.0</ele><time>2026-04-13T18:00:29Z</time></trkpt><trkpt lat="50.70386065016208" lon="1.5662288518080012"><ele>18.0</ele><time>2026-04-13T18:00:31Z</time></trkpt><trkpt lat="50.70378977172589" lon="1.566175120794671"><ele>18.0</ele><time>2026-04-13T18:00:33Z</time></trkpt><trkpt lat="50.70373122415212" lon="1.5660905636346434"><ele>18.0</ele><time>2026-04-13T18:00:35Z</time></trkpt><trkpt lat="50.70368084391349" lon="1.5660059585406307"><ele>18.000000000000004</ele><time>2026-04-13T18:00:37Z</time></trkpt><trkpt lat="50.70359578087734" lon="1.5660138429941743"><ele>18.0</ele><time>2026-04-13T18:00:40Z</time></trkpt><trkpt lat="50.7036116179619" lon="1.5661149882694747"><ele>18.0</ele><time>2026-04-13T18:00:43Z</time></trkpt><trkpt lat="50.703671054111275" lon="1.5661544617512482"><ele>18.0</ele><time>2026-04-13T18:00:46Z</time></trkpt><trkpt lat="50.70373163127265" lon="1.566216870592049"><ele>18.0</ele><time>2026-04-13T18:00:50Z</time></trkpt><trkpt lat="50.70379038336246" lon="1.5662619740549295"><ele>18.000000000000004</ele><time>2026-04-13T18:00:53.999Z</time></trkpt><trkpt lat="50.703831465517936" lon="1.5661795919744461"><ele>18.0</ele><time>2026-04-13T18:01:02.999Z</time></trkpt><trkpt lat="50.70375793425246" lon="1.5661290440246318"><ele>18.28571428571429</ele><time>2026-04-13T18:02:45Z</time></trkpt><trkpt lat="50.70369112554619" lon="1.5660726273679015"><ele>18.571428571428573</ele><time>2026-04-13T18:02:49Z</time></trkpt><trkpt lat="50.7036228261391" lon="1.566000436032396"><ele>18.857142857142858</ele><time>2026-04-13T18:02:53Z</time></trkpt><trkpt lat="50.703563204213985" lon="1.5660564237425887"><ele>19.142857142857146</ele><time>2026-04-13T18:02:56.999Z</time></trkpt><trkpt lat="50.703536219067" lon="1.5661465137451616"><ele>19.42857142857143</ele><time>2026-04-13T18:03:01.999Z</time></trkpt><trkpt lat="50.70352066341481" lon="1.566251546614045"><ele>19.714285714285715</ele><time>2026-04-13T18:03:07.999Z</time></trkpt><trkpt lat="50.7035065856883" lon="1.5663496610060292"><ele>20.0</ele><time>2026-04-13T18:03:12.999Z</time></trkpt><trkpt lat="50.70350902645338" lon="1.5664688331083634"><ele>20.0</ele><time>2026-04-13T18:03:18.999Z</time></trkpt><trkpt lat="50.703527251288335" lon="1.5665840191012066"><ele>20.0</ele><time>2026-04-13T18:03:25.999Z</time></trkpt><trkpt lat="50.70358654344298" lon="1.566627573802488"><ele>20.0</ele><time>2026-04-13T18:03:30.998Z</time></trkpt><trkpt lat="50.70366535261592" lon="1.5666524047391646"><ele>20.0</ele><time>2026-04-13T18:03:35.998Z</time></trkpt><trkpt lat="50.70372218767798" lon="1.5666952425935428"><ele>20.0</ele><time>2026-04-13T18:03:39.998Z</time></trkpt><trkpt lat="50.70374488584045" lon="1.566798653129337"><ele>20.0</ele><time>2026-04-13T18:03:53.998Z</time></trkpt><trkpt lat="50.703753045681935" lon="1.5669010274502715"><ele>20.0</ele><time>2026-04-13T18:05:08.999Z</time></trkpt><trkpt lat="50.70381864678149" lon="1.5669399884825286"><ele>18.0</ele><time>2026-04-13T18:08:25.997Z</time></trkpt><trkpt lat="50.70384282472656" lon="1.5670502801216337"><ele>23.0</ele><time>2026-04-13T18:08:39Z</time></trkpt><trkpt lat="50.70379008762044" lon="1.5669706519551871"><ele>18.0</ele><time>2026-04-13T18:08:43Z</time></trkpt></trkseg></trk></gpx>